Time;durP1;ratioP1;P1;durP2;ratioP2;P2;SDS_P1;SDS_P2;PMS_P1;PMS_P2;Temp;Humidity;BMP_temperature;BMP_pressure;BME280_temperature;BME280_humidity;BME280_pressure;Samples;Min_cycle;Max_cycle;Signal;HPM_P1;HPM_P2
2023/03/20 00:01:18;;;;;;;1.90;1.67;;;10.60;75.30;;;;;;4982838;28;20088;-63
2023/03/20 00:03:44;;;;;;;1.80;1.70;;;10.60;75.10;;;;;;4982691;28;20405;-62
2023/03/20 00:06:22;;;;;;;1.80;1.70;;;10.60;74.70;;;;;;4982149;28;20454;-62
2023/03/20 00:08:50;;;;;;;1.88;1.77;;;10.60;74.90;;;;;;4980381;28;20054;-62
2023/03/20 00:11:21;;;;;;;1.77;1.63;;;10.50;74.50;;;;;;4978292;28;20058;-60
2023/03/20 00:13:47;;;;;;;1.88;1.67;;;10.50;74.70;;;;;;4981693;28;20546;-62
2023/03/20 00:16:13;;;;;;;1.95;1.67;;;10.50;74.70;;;;;;4985815;28;20117;-61
2023/03/20 00:18:40;;;;;;;1.70;1.60;;;10.40;75.10;;;;;;4983722;28;20468;-62
2023/03/20 00:21:16;;;;;;;3.10;1.83;;;10.40;75.40;;;;;;4983283;28;20038;-62
2023/03/20 00:23:42;;;;;;;2.58;1.77;;;10.30;75.70;;;;;;4984641;28;20173;-63
2023/03/20 00:26:12;;;;;;;2.35;1.70;;;10.30;75.60;;;;;;4986530;28;20065;-62
2023/03/20 00:28:42;;;;;;;2.47;1.42;;;10.30;76.00;;;;;;4982643;28;20049;-61
2023/03/20 00:31:25;;;;;;;1.95;1.75;;;10.30;76.20;;;;;;4983954;28;20050;-61
2023/03/20 00:33:53;;;;;;;1.80;1.70;;;10.20;77.00;;;;;;4984715;28;20034;-62
2023/03/20 00:36:19;;;;;;;2.20;2.00;;;10.20;76.40;;;;;;4983757;28;20085;-61
2023/03/20 00:38:45;;;;;;;2.15;1.95;;;10.10;76.50;;;;;;4983378;28;20502;-62
2023/03/20 00:41:24;;;;;;;2.08;1.88;;;10.10;76.80;;;;;;4983972;28;20153;-62
2023/03/20 00:43:55;;;;;;;2.17;2.00;;;10.10;77.70;;;;;;4984956;28;20038;-63
2023/03/20 00:46:21;;;;;;;2.35;2.15;;;10.10;77.20;;;;;;4985506;28;20538;-60
2023/03/20 00:48:47;;;;;;;2.17;2.00;;;10.10;77.40;;;;;;4982604;28;20074;-62
2023/03/20 00:51:13;;;;;;;2.50;2.30;;;10.10;77.50;;;;;;4985288;28;20066;-61
2023/03/20 00:53:38;;;;;;;2.72;2.53;;;10.10;77.70;;;;;;4980923;28;20113;-60
2023/03/20 00:56:05;;;;;;;2.42;2.22;;;10.10;78.00;;;;;;4983778;28;20049;-61
2023/03/20 00:58:31;;;;;;;2.70;2.50;;;10.10;78.00;;;;;;4985676;28;20041;-63
2023/03/20 01:00:56;;;;;;;2.33;2.15;;;10.10;78.00;;;;;;4987364;28;20039;-61
2023/03/20 01:03:25;;;;;;;2.53;2.33;;;10.10;78.00;;;;;;4987104;28;20042;-60
2023/03/20 01:05:51;;;;;;;2.50;2.30;;;10.10;78.00;;;;;;4983277;28;20630;-61
2023/03/20 01:08:21;;;;;;;2.55;2.35;;;10.10;78.00;;;;;;4985757;28;20246;-62
2023/03/20 01:10:50;;;;;;;2.58;2.38;;;10.10;78.20;;;;;;4985100;28;20046;-62
2023/03/20 01:13:20;;;;;;;2.60;2.40;;;10.20;78.00;;;;;;4985067;28;20620;-62
2023/03/20 01:15:47;;;;;;;2.30;2.13;;;10.20;78.20;;;;;;4986445;28;20042;-61
2023/03/20 01:18:14;;;;;;;2.63;2.42;;;10.20;78.00;;;;;;4987400;28;20038;-61
2023/03/20 01:20:40;;;;;;;2.90;2.30;;;10.20;78.00;;;;;;4985362;28;20058;-59
2023/03/20 01:23:05;;;;;;;3.03;2.30;;;10.20;78.00;;;;;;4988321;28;20502;-62
2023/03/20 01:25:31;;;;;;;2.80;2.55;;;10.20;78.00;;;;;;4982868;28;20126;-63
2023/03/20 01:27:57;;;;;;;3.13;2.90;;;10.20;78.00;;;;;;4982260;28;20082;-62
2023/03/20 01:30:30;;;;;;;3.25;2.95;;;10.20;78.00;;;;;;4984499;28;20038;-63
2023/03/20 01:32:58;;;;;;;3.22;2.92;;;10.20;78.50;;;;;;4982381;28;20075;-63
2023/03/20 01:35:26;;;;;;;3.50;2.90;;;10.10;78.10;;;;;;4979888;28;20042;-63
2023/03/20 01:37:53;;;;;;;2.75;2.55;;;10.10;78.30;;;;;;4982867;28;20629;-60
2023/03/20 01:40:26;;;;;;;3.90;2.70;;;10.10;78.60;;;;;;4975372;28;20045;-63
2023/03/20 01:42:52;;;;;;;3.08;2.75;;;10.00;78.70;;;;;;4982419;28;20096;-60
2023/03/20 01:45:23;;;;;;;2.70;2.50;;;10.00;78.60;;;;;;4983995;28;20038;-62
2023/03/20 01:47:50;;;;;;;2.90;2.70;;;10.00;78.80;;;;;;4984793;28;20045;-61
2023/03/20 01:50:31;;;;;;;2.83;2.50;;;10.00;78.60;;;;;;4982441;28;20125;-62
2023/03/20 01:53:32;;;;;;;4.75;2.75;;;10.00;79.30;;;;;;4983147;28;20037;-60
2023/03/20 01:56:00;;;;;;;2.90;2.50;;;10.10;79.30;;;;;;4970964;28;20045;-61
2023/03/20 01:58:32;;;;;;;3.15;2.90;;;10.10;78.80;;;;;;4983322;28;20608;-62
2023/03/20 02:00:58;;;;;;;2.90;2.67;;;10.10;79.10;;;;;;4993313;28;20100;-62
2023/03/20 02:03:24;;;;;;;3.55;2.80;;;10.10;78.90;;;;;;4984930;28;20589;-62
2023/03/20 02:05:50;;;;;;;3.08;2.88;;;10.10;78.90;;;;;;4979822;28;20209;-63
2023/03/20 02:08:15;;;;;;;2.78;2.58;;;10.10;79.10;;;;;;4985053;28;20097;-63
2023/03/20 02:10:43;;;;;;;2.60;2.40;;;10.10;79.00;;;;;;4981259;28;20394;-63
2023/03/20 02:13:10;;;;;;;3.20;2.90;;;10.00;78.90;;;;;;4983351;28;20041;-62
2023/03/20 02:16:02;;;;;;;3.33;3.05;;;10.10;78.90;;;;;;4983666;28;20050;-62
2023/03/20 02:18:29;;;;;;;3.10;2.90;;;10.20;79.50;;;;;;4986016;28;20040;-62
2023/03/20 02:21:32;;;;;;;2.92;2.72;;;10.20;78.80;;;;;;4984050;28;20121;-62
2023/03/20 02:24:45;;;;;;;2.95;2.75;;;10.20;79.50;;;;;;4985643;28;20056;-63
2023/03/20 02:27:38;;;;;;;3.25;2.90;;;10.30;79.40;;;;;;4920554;29;20063;-63
2023/03/20 02:30:27;;;;;;;3.22;2.92;;;10.30;78.80;;;;;;4981066;28;20046;-61
2023/03/20 02:33:24;;;;;;;4.35;3.10;;;10.30;78.90;;;;;;4983164;28;20034;-62
2023/03/20 02:36:18;;;;;;;3.75;2.90;;;10.30;78.90;;;;;;4981858;28;20470;-62
2023/03/20 02:39:03;;;;;;;3.00;2.80;;;10.20;78.70;;;;;;4981454;28;20541;-63
2023/03/20 02:41:37;;;;;;;2.95;2.70;;;10.30;78.20;;;;;;4982224;28;20379;-62
2023/03/20 02:44:42;;;;;;;3.65;3.35;;;10.30;78.30;;;;;;4980957;28;20399;-62
2023/03/20 02:47:30;;;;;;;4.13;3.13;;;10.30;79.00;;;;;;4981365;28;20042;-62
2023/03/20 02:50:20;;;;;;;3.47;3.17;;;10.30;78.30;;;;;;4980439;28;20041;-62
2023/03/20 02:52:59;;;;;;;3.42;3.15;;;10.30;79.30;;;;;;4982530;28;20104;-62
2023/03/20 02:55:38;;;;;;;3.53;3.22;;;10.20;78.90;;;;;;4985037;28;20038;-62
2023/03/20 02:58:25;;;;;;;4.00;3.60;;;10.20;79.00;;;;;;4983794;28;20048;-62
2023/03/20 03:01:10;;;;;;;5.22;3.83;;;10.20;79.60;;;;;;4984604;28;20483;-60
2023/03/20 03:04:00;;;;;;;4.22;3.83;;;10.20;79.40;;;;;;4983947;28;20118;-60
2023/03/20 03:06:31;;;;;;;4.55;4.07;;;10.20;80.00;;;;;;4983724;28;20038;-62
2023/03/20 03:09:09;;;;;;;5.00;4.20;;;10.20;79.30;;;;;;4982650;28;20509;-63
2023/03/20 03:11:41;;;;;;;4.68;4.28;;;10.20;79.80;;;;;;4984538;28;20041;-62
2023/03/20 03:14:11;;;;;;;4.95;4.43;;;10.20;79.40;;;;;;4983041;28;20108;-62
2023/03/20 03:16:39;;;;;;;5.20;4.70;;;10.20;79.40;;;;;;4979395;28;20046;-62
2023/03/20 03:19:08;;;;;;;5.45;4.95;;;10.20;79.60;;;;;;4981947;28;20062;-61
2023/03/20 03:21:37;;;;;;;6.20;4.78;;;10.20;79.80;;;;;;4979688;28;20528;-62
2023/03/20 03:24:03;;;;;;;5.78;5.28;;;10.20;79.80;;;;;;4984188;28;20045;-62
2023/03/20 03:26:38;;;;;;;5.57;5.07;;;10.20;79.90;;;;;;4984509;28;20034;-62
2023/03/20 03:29:11;;;;;;;6.05;5.25;;;10.20;80.60;;;;;;4984778;28;20069;-62
2023/03/20 03:31:37;;;;;;;5.82;5.22;;;10.10;80.50;;;;;;4986911;28;20038;-61
2023/03/20 03:34:03;;;;;;;6.22;5.57;;;10.10;80.10;;;;;;4986739;28;20080;-62
2023/03/20 03:37:06;;;;;;;5.72;5.22;;;10.10;80.30;;;;;;4984376;28;20058;-63
2023/03/20 03:39:40;;;;;;;5.80;5.30;;;10.10;81.20;;;;;;4978424;28;20498;-62
2023/03/20 03:42:36;;;;;;;5.90;5.30;;;10.00;80.80;;;;;;4980636;28;20093;-62
2023/03/20 03:45:06;;;;;;;6.00;5.40;;;10.00;81.30;;;;;;4981176;28;20071;-62
2023/03/20 03:47:45;;;;;;;5.72;5.22;;;10.00;80.60;;;;;;4982203;28;20421;-62
2023/03/20 03:50:31;;;;;;;5.82;5.22;;;10.00;80.50;;;;;;4981677;28;20062;-62
2023/03/20 03:53:01;;;;;;;6.72;5.45;;;10.00;81.10;;;;;;4980819;28;20690;-63
2023/03/20 03:55:35;;;;;;;7.93;5.30;;;10.00;80.40;;;;;;4983538;28;20105;-62
2023/03/20 03:58:08;;;;;;;5.88;5.30;;;10.00;80.60;;;;;;4982244;28;20049;-62
2023/03/20 04:00:35;;;;;;;6.88;5.30;;;10.00;80.60;;;;;;4978350;28;20100;-63
2023/03/20 04:03:05;;;;;;;8.07;5.10;;;10.00;80.20;;;;;;4980382;28;20046;-62
2023/03/20 04:05:33;;;;;;;5.57;5.07;;;10.00;80.10;;;;;;4981947;28;20100;-63
2023/03/20 04:08:02;;;;;;;6.00;4.93;;;10.10;80.10;;;;;;4982884;28;20053;-62
2023/03/20 04:10:27;;;;;;;5.70;5.10;;;10.10;80.10;;;;;;4980055;28;20034;-62
2023/03/20 04:12:53;;;;;;;5.78;5.25;;;10.10;79.80;;;;;;4982283;28;20407;-62
2023/03/20 04:15:20;;;;;;;5.32;4.82;;;10.20;79.80;;;;;;4982050;28;20027;-60
2023/03/20 04:17:45;;;;;;;5.50;5.05;;;10.20;79.70;;;;;;4983703;28;20390;-61
2023/03/20 04:20:12;;;;;;;5.53;5.03;;;10.20;79.60;;;;;;4981973;28;20049;-62
2023/03/20 04:22:38;;;;;;;5.78;4.85;;;10.20;79.60;;;;;;4980561;28;20057;-60
2023/03/20 04:25:06;;;;;;;6.25;4.50;;;10.20;79.50;;;;;;4982445;28;20390;-62
2023/03/20 04:27:31;;;;;;;6.57;5.72;;;10.20;79.60;;;;;;4980253;28;20428;-61
2023/03/20 04:29:57;;;;;;;5.57;5.07;;;10.20;79.50;;;;;;4979136;28;20075;-61
2023/03/20 04:32:23;;;;;;;6.20;5.60;;;10.20;79.50;;;;;;4979437;28;20027;-62
2023/03/20 04:34:49;;;;;;;5.97;5.28;;;10.20;79.50;;;;;;4982527;28;20065;-62
2023/03/20 04:37:14;;;;;;;5.78;5.28;;;10.20;79.50;;;;;;4980346;28;20088;-62
2023/03/20 04:39:41;;;;;;;7.88;6.13;;;10.20;79.60;;;;;;4978180;28;20510;-63
2023/03/20 04:42:08;;;;;;;20.38;10.88;;;10.10;79.40;;;;;;4980288;28;20520;-62
2023/03/20 04:44:33;;;;;;;185.90;63.08;;;10.10;79.60;;;;;;4980959;28;20057;-61
2023/03/20 04:46:59;;;;;;;78.07;41.42;;;10.10;79.50;;;;;;4980731;28;20526;-62
2023/03/20 04:49:25;;;;;;;31.90;19.90;;;10.10;79.60;;;;;;4979426;28;20434;-62
2023/03/20 04:51:51;;;;;;;14.68;9.75;;;10.10;79.70;;;;;;4979383;28;20575;-62
2023/03/20 04:54:17;;;;;;;8.77;7.60;;;10.10;79.60;;;;;;4981220;28;20031;-61
2023/03/20 04:56:43;;;;;;;7.10;6.25;;;10.20;79.60;;;;;;4979509;28;20045;-63
2023/03/20 04:59:08;;;;;;;6.95;5.80;;;10.20;79.60;;;;;;4978845;28;20354;-61
2023/03/20 05:01:34;;;;;;;5.78;5.28;;;10.20;79.50;;;;;;4979928;28;20052;-62
2023/03/20 05:04:00;;;;;;;6.10;5.38;;;10.20;79.40;;;;;;4980386;28;20508;-62
2023/03/20 05:06:32;;;;;;;5.85;5.25;;;10.20;79.30;;;;;;4979678;28;20545;-61
2023/03/20 05:08:59;;;;;;;6.00;5.40;;;10.40;79.50;;;;;;4981647;28;20034;-61
2023/03/20 05:11:26;;;;;;;5.70;5.13;;;10.20;79.20;;;;;;4981945;28;20693;-60
2023/03/20 05:13:51;;;;;;;6.05;5.45;;;10.20;79.10;;;;;;4983328;28;20045;-61
2023/03/20 05:16:17;;;;;;;6.65;6.05;;;10.30;79.10;;;;;;4982024;28;20038;-61
2023/03/20 05:18:43;;;;;;;6.18;5.55;;;10.20;79.80;;;;;;4982479;28;20428;-62
2023/03/20 05:21:08;;;;;;;5.53;5.03;;;10.20;78.90;;;;;;4983496;28;20030;-62
2023/03/20 05:23:34;;;;;;;5.55;5.05;;;10.20;78.90;;;;;;4984397;28;20081;-62
2023/03/20 05:26:00;;;;;;;5.60;4.97;;;10.20;78.90;;;;;;4986669;28;20085;-62
2023/03/20 05:28:26;;;;;;;5.10;4.63;;;10.20;78.80;;;;;;4984847;28;20049;-61
2023/03/20 05:30:52;;;;;;;4.93;4.50;;;10.30;78.90;;;;;;4985437;28;20489;-61
2023/03/20 05:33:17;;;;;;;4.97;4.20;;;10.30;78.80;;;;;;4988649;28;20026;-63
2023/03/20 05:35:43;;;;;;;5.07;4.50;;;10.30;78.80;;;;;;4989483;28;20031;-60
2023/03/20 05:38:09;;;;;;;5.70;4.57;;;10.20;78.70;;;;;;4986876;28;20034;-62
2023/03/20 05:40:34;;;;;;;5.15;4.60;;;10.20;78.70;;;;;;4987045;28;20042;-61
2023/03/20 05:43:00;;;;;;;5.40;4.90;;;10.20;78.70;;;;;;4987709;28;20038;-62
2023/03/20 05:45:25;;;;;;;5.43;4.47;;;10.20;78.70;;;;;;4987084;28;20502;-62
2023/03/20 05:47:51;;;;;;;6.68;4.55;;;10.20;78.80;;;;;;4986371;28;20046;-62
2023/03/20 05:50:17;;;;;;;7.50;4.30;;;10.30;79.00;;;;;;4987258;28;20490;-62
2023/03/20 05:52:47;;;;;;;4.72;4.32;;;10.20;79.00;;;;;;4986560;28;20031;-61
2023/03/20 05:55:13;;;;;;;6.10;4.97;;;10.20;79.30;;;;;;4986891;28;20258;-61
2023/03/20 05:57:39;;;;;;;7.43;5.30;;;10.20;79.20;;;;;;4987725;28;20039;-62
2023/03/20 06:00:05;;;;;;;4.95;4.20;;;10.20;80.00;;;;;;4986430;28;20461;-61
2023/03/20 06:02:31;;;;;;;6.97;4.90;;;10.20;79.20;;;;;;4986971;28;20474;-62
2023/03/20 06:04:57;;;;;;;4.90;3.97;;;10.20;79.20;;;;;;4987334;28;20054;-61
2023/03/20 06:07:22;;;;;;;4.57;4.05;;;10.20;79.10;;;;;;4986978;28;20145;-62
2023/03/20 06:09:48;;;;;;;4.13;3.72;;;10.20;79.10;;;;;;4985952;28;20653;-62
2023/03/20 06:12:15;;;;;;;4.30;3.90;;;10.30;79.10;;;;;;4988297;28;20418;-62
2023/03/20 06:14:40;;;;;;;6.03;3.30;;;10.30;79.10;;;;;;4985886;28;20242;-59
2023/03/20 06:17:06;;;;;;;6.38;3.42;;;10.30;79.00;;;;;;4986953;28;20490;-61
2023/03/20 06:19:31;;;;;;;7.57;3.30;;;10.30;79.10;;;;;;4987460;28;20084;-60
2023/03/20 06:21:57;;;;;;;5.28;3.88;;;10.30;79.00;;;;;;4984824;28;20505;-62
2023/03/20 06:24:23;;;;;;;4.53;3.45;;;10.30;79.00;;;;;;4985916;28;22616;-62
2023/03/20 06:26:48;;;;;;;11.18;3.88;;;10.30;79.00;;;;;;4986115;28;20061;-61
2023/03/20 06:29:14;;;;;;;5.38;4.60;;;10.40;79.10;;;;;;4985450;28;20038;-61
2023/03/20 06:31:40;;;;;;;5.93;4.03;;;10.30;79.00;;;;;;4987672;28;20093;-59
2023/03/20 06:34:06;;;;;;;5.35;4.80;;;10.40;79.10;;;;;;4986842;28;20046;-61
2023/03/20 06:36:31;;;;;;;10.68;5.63;;;10.40;79.10;;;;;;4984999;28;20342;-60
2023/03/20 06:38:57;;;;;;;6.90;5.80;;;10.30;79.10;;;;;;4986547;28;20149;-62
2023/03/20 06:41:23;;;;;;;6.65;5.05;;;10.40;79.20;;;;;;4986356;28;20052;-61
2023/03/20 06:43:48;;;;;;;8.88;5.40;;;10.40;79.40;;;;;;4986235;28;20042;-61
2023/03/20 06:46:14;;;;;;;10.25;5.72;;;10.40;79.40;;;;;;4986049;28;20516;-60
2023/03/20 06:48:40;;;;;;;6.47;4.72;;;10.40;79.40;;;;;;4984865;28;20401;-62
2023/03/20 06:51:06;;;;;;;9.55;5.38;;;10.40;79.30;;;;;;4985714;28;20581;-61
2023/03/20 06:53:32;;;;;;;6.40;4.72;;;10.40;79.40;;;;;;4985384;28;20034;-60
2023/03/20 06:55:58;;;;;;;8.00;4.65;;;10.40;79.40;;;;;;4986840;28;20033;-62
2023/03/20 06:58:24;;;;;;;8.27;4.85;;;10.50;79.50;;;;;;4985684;28;20037;-61
2023/03/20 07:00:50;;;;;;;6.75;4.65;;;10.50;79.50;;;;;;4984558;28;20041;-62
2023/03/20 07:03:16;;;;;;;6.07;4.38;;;10.50;79.50;;;;;;4986915;28;20050;-60
2023/03/20 07:05:42;;;;;;;6.05;4.50;;;10.50;79.50;;;;;;4986094;28;20034;-60
2023/03/20 07:08:08;;;;;;;4.22;3.75;;;10.60;79.60;;;;;;4985000;28;20454;-61
2023/03/20 07:10:34;;;;;;;4.47;3.83;;;10.60;79.40;;;;;;4985568;28;20092;-60
2023/03/20 07:13:00;;;;;;;4.50;4.10;;;10.60;79.30;;;;;;4985904;28;20125;-61
2023/03/20 07:15:28;;;;;;;4.07;3.65;;;10.60;79.30;;;;;;4984264;28;20522;-61
2023/03/20 07:17:53;;;;;;;4.28;3.55;;;10.70;79.40;;;;;;4985704;28;20042;-61
2023/03/20 07:20:19;;;;;;;10.30;4.43;;;10.70;79.30;;;;;;4985111;28;20038;-60
2023/03/20 07:22:47;;;;;;;5.88;4.50;;;10.70;79.40;;;;;;4984477;28;20192;-62
2023/03/20 07:25:14;;;;;;;5.20;4.05;;;10.80;79.50;;;;;;4987057;28;20044;-62
2023/03/20 07:27:39;;;;;;;4.47;3.95;;;10.80;79.20;;;;;;4985006;28;20115;-62
2023/03/20 07:30:06;;;;;;;7.25;5.03;;;10.80;79.10;;;;;;4986807;28;20066;-62
2023/03/20 07:32:32;;;;;;;7.07;4.45;;;10.80;79.10;;;;;;4986423;28;20503;-62
2023/03/20 07:34:57;;;;;;;6.82;4.50;;;10.80;79.10;;;;;;4986325;28;20034;-62
2023/03/20 07:37:23;;;;;;;5.03;4.30;;;10.80;79.10;;;;;;4985805;28;20038;-63
2023/03/20 07:39:49;;;;;;;4.75;4.22;;;10.80;79.10;;;;;;4983146;28;20383;-62
2023/03/20 07:42:15;;;;;;;4.03;3.33;;;10.80;79.20;;;;;;4985250;28;20096;-61
2023/03/20 07:44:41;;;;;;;7.50;3.85;;;10.80;79.10;;;;;;4984962;28;20030;-63
2023/03/20 07:47:07;;;;;;;4.18;3.78;;;10.80;79.00;;;;;;4983858;28;20406;-61
2023/03/20 07:49:33;;;;;;;4.38;3.63;;;10.80;79.10;;;;;;4985016;28;20141;-62
2023/03/20 07:51:59;;;;;;;4.50;3.40;;;10.80;79.20;;;;;;4984841;28;20378;-62
2023/03/20 07:54:24;;;;;;;8.20;3.00;;;10.90;79.30;;;;;;4984747;28;20057;-62
2023/03/20 07:56:50;;;;;;;3.25;2.75;;;10.90;79.10;;;;;;4983839;28;20034;-62
2023/03/20 07:59:16;;;;;;;3.15;2.58;;;10.90;79.00;;;;;;4983060;28;20034;-62
2023/03/20 08:01:42;;;;;;;3.13;2.63;;;11.00;78.90;;;;;;4985656;28;20057;-61
2023/03/20 08:04:07;;;;;;;2.95;2.72;;;11.00;78.80;;;;;;4985893;28;20415;-62
2023/03/20 08:06:33;;;;;;;2.50;2.30;;;11.10;78.90;;;;;;4985286;28;20106;-60
2023/03/20 08:08:59;;;;;;;2.72;2.42;;;11.10;78.90;;;;;;4980862;28;20042;-61
2023/03/20 08:11:25;;;;;;;3.00;2.70;;;11.20;78.70;;;;;;4984733;28;20034;-61
2023/03/20 08:13:50;;;;;;;5.68;3.00;;;11.20;79.40;;;;;;4984783;28;20035;-61
2023/03/20 08:16:16;;;;;;;4.10;2.60;;;11.20;78.50;;;;;;4985032;28;20030;-62
2023/03/20 08:18:41;;;;;;;4.47;2.40;;;11.30;78.60;;;;;;4984503;28;20034;-60
2023/03/20 08:21:07;;;;;;;2.50;2.30;;;11.30;78.50;;;;;;4985391;28;20873;-61
2023/03/20 08:23:33;;;;;;;2.55;2.20;;;11.40;78.30;;;;;;4984257;28;20486;-59
2023/03/20 08:25:59;;;;;;;4.28;2.45;;;11.50;78.10;;;;;;4983098;28;20054;-62
2023/03/20 08:28:25;;;;;;;2.80;1.60;;;11.50;78.00;;;;;;4983799;28;20066;-60
2023/03/20 08:30:50;;;;;;;1.67;1.13;;;11.60;77.90;;;;;;4984728;28;20066;-62
2023/03/20 08:33:17;;;;;;;1.33;1.23;;;11.60;77.00;;;;;;4985754;28;20069;-61
2023/03/20 08:35:43;;;;;;;1.30;1.20;;;11.70;76.50;;;;;;4984070;28;20030;-61
2023/03/20 08:38:12;;;;;;;1.73;1.25;;;11.70;76.20;;;;;;4983552;28;20058;-61
2023/03/20 08:40:41;;;;;;;2.80;1.40;;;11.70;76.00;;;;;;4983869;28;20114;-60
2023/03/20 08:43:07;;;;;;;2.50;1.40;;;11.80;75.90;;;;;;4984067;28;20085;-61
2023/03/20 08:45:33;;;;;;;1.65;1.38;;;11.80;75.70;;;;;;4987952;28;20401;-62
2023/03/20 08:47:59;;;;;;;1.33;1.23;;;11.80;75.40;;;;;;4988640;28;20563;-60
2023/03/20 08:50:24;;;;;;;1.35;1.25;;;11.90;75.30;;;;;;4988445;28;20324;-62
2023/03/20 08:52:50;;;;;;;1.20;1.10;;;11.90;75.30;;;;;;4986477;28;20045;-62
2023/03/20 08:55:16;;;;;;;2.10;1.23;;;11.90;75.10;;;;;;4988682;28;20026;-61
2023/03/20 08:57:42;;;;;;;2.05;1.23;;;12.00;74.80;;;;;;4988526;28;20038;-61
2023/03/20 09:00:11;;;;;;;1.23;1.10;;;12.00;74.60;;;;;;4988427;28;20383;-61
2023/03/20 09:02:37;;;;;;;1.20;1.10;;;12.10;74.50;;;;;;4982923;28;20038;-60
2023/03/20 09:05:03;;;;;;;1.30;1.05;;;12.10;74.20;;;;;;4990259;28;20100;-60
2023/03/20 09:07:29;;;;;;;1.20;1.10;;;12.10;74.00;;;;;;4989371;28;20517;-61
2023/03/20 09:09:55;;;;;;;1.42;1.00;;;12.10;74.70;;;;;;4988873;28;20105;-61
2023/03/20 09:12:20;;;;;;;1.88;1.17;;;12.20;73.80;;;;;;4989122;28;20358;-60
2023/03/20 09:14:46;;;;;;;3.28;1.20;;;12.20;73.70;;;;;;4988833;28;20062;-61
2023/03/20 09:17:11;;;;;;;0.93;0.90;;;12.20;73.50;;;;;;4989619;28;20046;-60
2023/03/20 09:19:38;;;;;;;1.65;1.02;;;12.20;73.60;;;;;;4988121;28;20034;-61
2023/03/20 09:22:04;;;;;;;3.70;1.00;;;12.20;73.50;;;;;;4988340;28;20040;-62
2023/03/20 09:24:31;;;;;;;0.88;0.80;;;12.30;73.20;;;;;;4989192;28;20030;-62
2023/03/20 09:26:57;;;;;;;0.90;0.80;;;12.30;72.80;;;;;;4990209;28;20486;-62
2023/03/20 09:29:23;;;;;;;0.80;0.80;;;12.30;72.60;;;;;;4987856;28;20533;-62
2023/03/20 09:31:49;;;;;;;1.83;0.70;;;12.30;72.50;;;;;;4989868;28;20041;-61
2023/03/20 09:34:15;;;;;;;0.70;0.70;;;12.40;72.50;;;;;;4989409;28;20042;-60
2023/03/20 09:36:40;;;;;;;1.30;0.70;;;12.40;71.80;;;;;;4987293;28;20102;-60
2023/03/20 09:39:06;;;;;;;0.60;0.60;;;12.50;71.50;;;;;;4988317;28;20035;-62
2023/03/20 09:41:35;;;;;;;0.82;0.70;;;12.50;71.30;;;;;;4989905;28;20034;-62
2023/03/20 09:44:39;;;;;;;0.70;0.70;;;12.60;71.30;;;;;;4988132;28;20037;-62
2023/03/20 09:47:20;;;;;;;0.77;0.77;;;12.60;70.00;;;;;;4988310;28;20406;-62
2023/03/20 09:49:58;;;;;;;0.75;0.75;;;12.70;70.00;;;;;;4988279;28;20506;-62
2023/03/20 09:52:26;;;;;;;0.90;0.90;;;12.70;71.10;;;;;;4987845;28;20417;-60
2023/03/20 09:54:55;;;;;;;0.90;0.80;;;12.70;70.60;;;;;;4988591;28;20034;-63
2023/03/20 09:57:26;;;;;;;1.65;1.55;;;12.70;70.50;;;;;;4988181;28;20035;-62
2023/03/20 09:59:57;;;;;;;1.70;1.20;;;12.80;70.00;;;;;;4987846;28;20516;-62
2023/03/20 10:02:55;;;;;;;1.60;1.05;;;12.80;69.90;;;;;;4988406;28;20045;-61
2023/03/20 10:05:25;;;;;;;2.35;1.02;;;12.80;69.20;;;;;;4987883;28;20042;-62
2023/03/20 10:07:58;;;;;;;1.10;0.90;;;12.90;69.60;;;;;;4986197;28;20414;-62
2023/03/20 10:10:38;;;;;;;2.53;0.95;;;12.90;69.70;;;;;;4988386;28;20056;-62
2023/03/20 10:13:12;;;;;;;0.90;0.90;;;12.90;69.50;;;;;;4986105;28;20121;-60
2023/03/20 10:15:50;;;;;;;1.10;1.00;;;12.90;69.00;;;;;;4989426;28;20035;-60
2023/03/20 10:18:32;;;;;;;0.82;0.82;;;12.90;68.60;;;;;;4988003;28;20086;-61
2023/03/20 10:21:22;;;;;;;0.80;0.80;;;12.90;68.50;;;;;;4988471;28;20044;-60
2023/03/20 10:24:04;;;;;;;1.15;0.80;;;12.90;67.60;;;;;;4988533;28;20046;-60
2023/03/20 10:26:35;;;;;;;3.10;1.08;;;12.90;67.80;;;;;;4987911;28;20132;-61
2023/03/20 10:29:19;;;;;;;1.67;1.20;;;12.90;68.00;;;;;;4987769;28;20042;-63
2023/03/20 10:32:01;;;;;;;2.58;1.60;;;12.90;68.10;;;;;;4988052;28;20034;-62
2023/03/20 10:34:51;;;;;;;1.33;1.23;;;12.80;68.40;;;;;;4986612;28;20077;-62
2023/03/20 10:37:40;;;;;;;1.52;1.15;;;12.90;68.30;;;;;;4987509;28;20157;-61
2023/03/20 10:40:26;;;;;;;1.30;1.00;;;12.90;68.50;;;;;;4987316;28;20124;-62
2023/03/20 10:42:55;;;;;;;3.67;0.93;;;12.90;68.00;;;;;;4986709;28;20092;-61
2023/03/20 10:45:39;;;;;;;1.80;0.95;;;12.90;68.60;;;;;;4987903;28;20406;-61
2023/03/20 10:48:21;;;;;;;0.82;0.82;;;13.00;67.60;;;;;;4984190;28;20112;-61
2023/03/20 10:50:52;;;;;;;4.38;1.10;;;13.00;67.30;;;;;;4986335;28;20038;-61
2023/03/20 10:53:40;;;;;;;1.50;0.90;;;13.00;67.80;;;;;;4987876;28;20034;-61
2023/03/20 10:56:10;;;;;;;0.82;0.80;;;13.00;66.40;;;;;;4987273;28;20065;-61
2023/03/20 10:58:41;;;;;;;2.17;1.00;;;13.00;66.90;;;;;;4986709;28;20418;-61
2023/03/20 11:01:07;;;;;;;2.50;2.28;;;13.00;66.90;;;;;;4986481;28;20034;-59
2023/03/20 11:03:37;;;;;;;0.90;0.90;;;12.90;67.30;;;;;;4987730;28;20093;-61
2023/03/20 11:06:21;;;;;;;0.80;0.80;;;13.00;67.30;;;;;;4984005;28;20035;-62
2023/03/20 11:08:50;;;;;;;1.05;1.00;;;13.00;66.70;;;;;;4985763;28;20116;-62
2023/03/20 11:11:24;;;;;;;0.70;0.68;;;13.00;66.70;;;;;;4985882;28;20465;-60
2023/03/20 11:13:51;;;;;;;0.60;0.60;;;13.10;66.40;;;;;;4985704;28;20037;-61
2023/03/20 11:16:31;;;;;;;1.98;0.70;;;13.00;66.80;;;;;;4986863;28;20426;-62
2023/03/20 11:19:05;;;;;;;0.80;0.80;;;13.00;65.90;;;;;;4999605;28;20517;-63
2023/03/20 11:21:32;;;;;;;2.78;1.40;;;13.00;66.20;;;;;;4984512;28;20034;-60
2023/03/20 11:23:59;;;;;;;0.50;0.50;;;13.10;66.50;;;;;;4986632;28;20518;-61
2023/03/20 11:26:39;;;;;;;0.85;0.60;;;13.10;66.00;;;;;;4988117;28;20030;-62
2023/03/20 11:29:14;;;;;;;0.60;0.60;;;13.20;65.20;;;;;;4986832;28;20117;-60
2023/03/20 11:31:40;;;;;;;0.47;0.43;;;13.20;65.20;;;;;;4988274;28;20096;-61
2023/03/20 11:34:06;;;;;;;0.90;0.68;;;13.20;65.00;;;;;;4987167;28;20057;-61
2023/03/20 11:36:35;;;;;;;1.02;0.85;;;13.20;64.10;;;;;;4987188;28;20081;-62
2023/03/20 11:39:14;;;;;;;0.50;0.50;;;13.20;65.90;;;;;;4986531;28;20060;-61
2023/03/20 11:41:50;;;;;;;0.50;0.47;;;13.30;64.50;;;;;;4985289;28;20121;-61
2023/03/20 11:44:35;;;;;;;1.92;0.50;;;13.30;63.50;;;;;;4986088;28;20537;-61
2023/03/20 11:47:05;;;;;;;0.50;0.50;;;13.30;63.10;;;;;;4985547;28;20038;-62
2023/03/20 11:49:44;;;;;;;0.75;0.40;;;13.40;63.60;;;;;;4986305;28;20518;-62
2023/03/20 11:52:15;;;;;;;1.48;0.40;;;13.40;63.40;;;;;;4985008;28;20064;-61
2023/03/20 11:54:48;;;;;;;0.75;0.50;;;13.40;63.20;;;;;;4984166;28;20077;-62
2023/03/20 11:57:38;;;;;;;0.80;0.50;;;13.30;62.90;;;;;;4986098;28;20462;-62
2023/03/20 12:00:10;;;;;;;0.45;0.45;;;13.40;61.30;;;;;;4985648;28;20073;-62
2023/03/20 12:02:38;;;;;;;0.40;0.30;;;13.30;62.40;;;;;;4985793;28;20502;-61
2023/03/20 12:05:31;;;;;;;0.80;0.45;;;13.40;62.90;;;;;;4985932;28;20537;-63
2023/03/20 12:08:05;;;;;;;1.73;0.40;;;13.40;62.40;;;;;;4985011;28;20421;-61
2023/03/20 12:10:38;;;;;;;0.63;0.45;;;13.30;62.20;;;;;;4984656;28;20037;-62
2023/03/20 12:13:17;;;;;;;0.98;0.40;;;13.30;62.20;;;;;;4986540;28;20038;-62
2023/03/20 12:15:50;;;;;;;0.50;0.50;;;13.40;61.90;;;;;;4984576;28;20033;-61
2023/03/20 12:18:35;;;;;;;0.60;0.35;;;13.30;62.20;;;;;;4986555;28;20062;-60
2023/03/20 12:21:19;;;;;;;0.60;0.57;;;13.30;62.20;;;;;;4986963;28;20464;-63
2023/03/20 12:23:51;;;;;;;1.08;0.50;;;13.30;62.20;;;;;;4990556;28;20037;-61
2023/03/20 12:26:47;;;;;;;0.77;0.60;;;13.30;62.80;;;;;;4990313;28;20111;-62
2023/03/20 12:29:30;;;;;;;1.60;0.60;;;13.40;62.40;;;;;;4989922;28;20051;-62
2023/03/20 12:32:03;;;;;;;0.52;0.52;;;13.40;62.90;;;;;;4989099;28;20049;-60
2023/03/20 12:34:39;;;;;;;0.50;0.50;;;13.40;62.50;;;;;;4990115;28;20042;-63
2023/03/20 12:37:10;;;;;;;0.40;0.40;;;13.50;62.70;;;;;;4988195;28;22488;-62
2023/03/20 12:39:51;;;;;;;1.48;0.50;;;13.60;62.30;;;;;;4989011;28;20038;-60
2023/03/20 12:42:56;;;;;;;0.68;0.43;;;13.60;62.40;;;;;;4987999;28;20060;-63
2023/03/20 12:45:32;;;;;;;0.68;0.43;;;13.70;60.70;;;;;;4989136;28;20048;-61
2023/03/20 12:48:09;;;;;;;1.15;0.55;;;13.70;60.90;;;;;;4989134;28;20064;-61
2023/03/20 12:50:57;;;;;;;1.63;0.68;;;13.70;60.80;;;;;;4989848;28;20453;-62
2023/03/20 12:54:27;;;;;;;0.90;0.60;;;13.70;60.30;;;;;;4988107;28;20053;-61
2023/03/20 12:57:25;;;;;;;0.50;0.50;;;13.70;60.00;;;;;;4899108;29;20033;-63
2023/03/20 13:00:14;;;;;;;1.05;0.50;;;13.70;61.10;;;;;;4903794;29;20064;-60
2023/03/20 13:02:40;;;;;;;0.55;0.30;;;13.60;60.00;;;;;;4976617;28;20073;-62
2023/03/20 13:05:18;;;;;;;0.70;0.50;;;13.60;60.50;;;;;;4990480;28;20038;-63
2023/03/20 13:08:06;;;;;;;0.98;0.50;;;13.60;59.70;;;;;;4990925;28;20521;-61